Kansas City, Missouri
Traffic Map
Current Weather Conditions
Kansas City, Missouri
Clear
Clear
22°
Feels Like: 22°
Wind Chill: 22° Ceiling: Unl
Heat Index: 22° Visibility: 10mi
Dew Point: Wind: 15mph
Humidity: 43% Direction: 200° (SSW)
Pressure: 30.02in Gusts: 22mph
Raw Report DataKMKC 181754Z 20013G19KT 10SM CLR 22/09 A3002 RMK AO2 SLP160 T02220089 10228 20111 56016
Traffic Incident Summary
Active as of:
Severity:
Category:
InformationThere was an issue retrieving the traffic information for this location. Please try a different location or try again shortly.
Advertisements